createdAt,value
2022-09-28T05:03:30.393Z,21.7
2022-09-28T05:08:57.732Z,21.6
2022-09-28T05:14:24.046Z,21.6
2022-09-28T05:19:49.000Z,21.6
2022-09-28T05:25:13.857Z,21.6
2022-09-28T05:30:22.021Z,21.6
2022-09-28T05:35:44.819Z,21.6
2022-09-28T05:41:08.240Z,21.6
2022-09-28T05:46:29.893Z,21.6
2022-09-28T05:51:51.910Z,21.6
2022-09-28T05:57:14.347Z,26.9
2022-09-28T06:02:36.321Z,27.1
2022-09-28T06:07:59.152Z,26.9
2022-09-28T06:13:23.188Z,27.1
2022-09-28T06:18:45.594Z,27.2
2022-09-28T06:24:13.627Z,27.3
2022-09-28T06:29:20.917Z,27.3
2022-09-28T06:34:43.640Z,27.3
2022-09-28T06:40:05.904Z,27.4
2022-09-28T06:45:30.050Z,29.2
2022-09-28T06:50:57.935Z,28.9
2022-09-28T06:56:20.693Z,28.6
2022-09-28T07:01:43.238Z,29.3
2022-09-28T07:07:04.748Z,29.8
2022-09-28T07:13:00.110Z,30.3
2022-09-28T07:19:55.473Z,30.8
2022-09-28T07:26:38.365Z,31.3
2022-09-28T07:32:01.963Z,32.4
2022-09-28T07:37:27.457Z,33.2
2022-09-28T07:42:52.580Z,35.1
2022-09-28T07:48:19.321Z,36.6
2022-09-28T07:53:44.603Z,38.1
2022-09-28T07:58:51.478Z,39.4
2022-09-28T08:04:15.988Z,40.5
2022-09-28T08:09:38.197Z,40.2
2022-09-28T08:15:06.217Z,41.8
2022-09-28T08:20:33.050Z,42.8
2022-09-28T08:25:58.030Z,41.9
2022-09-28T08:31:21.802Z,42.8
2022-09-28T08:36:49.580Z,43.7
2022-09-28T08:42:12.629Z,42.8
2022-09-28T08:47:35.366Z,44.6
2022-09-28T08:53:27.917Z,45.1
2022-09-28T08:59:06.170Z,44.6
2022-09-28T09:04:44.444Z,45.6
2022-09-28T09:10:22.629Z,46.9
2022-09-28T17:18:47.310Z,28.6
2022-09-28T17:24:25.412Z,28.4
2022-09-28T17:30:02.653Z,28.1
2022-09-28T17:36:12.847Z,27.7
2022-09-28T17:41:37.266Z,27.4
2022-09-28T17:47:14.518Z,27.1
2022-09-28T17:52:58.681Z,26.9
2022-09-28T17:58:26.879Z,26.8
2022-09-28T18:03:49.822Z,26.8
2022-09-28T18:09:59.801Z,26.6
2022-09-28T18:15:38.205Z,26.4
2022-09-28T18:21:16.233Z,26.2
2022-09-28T18:26:38.913Z,25.8
2022-09-28T18:32:03.087Z,25.6
2022-09-28T18:37:41.628Z,25.3
2022-09-28T18:43:20.727Z,25.1
2022-09-28T18:48:44.100Z,25
2022-09-28T18:54:06.462Z,24.9
2022-09-28T18:59:45.861Z,24.8
2022-09-28T19:05:31.605Z,24.7
2022-09-28T19:11:14.454Z,24.6
2022-09-28T19:16:53.013Z,24.6
2022-09-28T19:22:31.307Z,24.5
2022-09-28T19:28:08.562Z,24.5
2022-09-28T19:33:34.310Z,24.4
2022-09-28T19:39:17.408Z,24.4
2022-09-28T19:44:54.830Z,24.3
2022-09-28T19:50:32.585Z,24.3
2022-09-28T19:56:15.498Z,24.3
2022-09-28T20:01:42.366Z,24.3
2022-09-28T20:07:06.866Z,24.3
2022-09-28T20:12:44.770Z,24.3
2022-09-28T20:18:13.039Z,24.2
2022-09-28T20:23:55.390Z,24.3
2022-09-28T20:29:37.706Z,24.2
2022-09-28T20:35:32.541Z,24.2
2022-09-28T20:41:09.950Z,24.2
2022-09-28T20:46:36.024Z,24.2
2022-09-28T20:51:58.650Z,24.2
2022-09-28T20:57:36.134Z,24.2
2022-09-28T21:03:18.949Z,24.1
2022-09-28T21:08:57.841Z,24.1
2022-09-28T21:14:35.678Z,24.1
2022-09-28T21:20:13.741Z,24.1
2022-09-28T21:25:53.293Z,24.1
2022-09-28T21:31:30.595Z,24.1
2022-09-28T21:36:36.284Z,24.1
2022-09-28T21:42:17.200Z,24.1
2022-09-28T21:47:54.595Z,24.1
2022-09-28T21:53:16.644Z,24.1
2022-09-28T21:58:53.134Z,24.1
2022-09-28T22:04:31.751Z,24.1
2022-09-28T22:10:10.243Z,24.1
2022-09-28T22:15:47.787Z,24.1
2022-09-28T22:21:25.649Z,24.1
2022-09-28T22:26:32.940Z,24.1
2022-09-28T22:32:09.999Z,24.1
2022-09-28T22:37:47.369Z,24.1
2022-09-28T22:43:24.866Z,24.1
2022-09-28T22:48:50.697Z,24
2022-09-28T22:54:11.661Z,24.1
2022-09-28T22:59:48.931Z,24
2022-09-28T23:05:11.756Z,24
2022-09-28T23:10:49.186Z,24
2022-09-28T23:16:12.004Z,24.1
2022-09-28T23:21:33.294Z,24
2022-09-28T23:26:55.485Z,24
2022-09-28T23:32:18.236Z,24
2022-09-28T23:37:49.734Z,24
2022-09-28T23:43:26.978Z,24
2022-09-28T23:49:06.819Z,24
2022-09-28T23:54:43.557Z,24
